IBE592 LEMD-LFPG
Flight info
| Callsign | IBE592 |
|---|---|
| Flight time | 1h 35m |
| Altitude | 34000 |
| Route | RBO N867 DGO DCT ABRIX DCT CNA DCT POI/N0405F300 DCT PEPAX UT182 KEPER |
| Aircraft | A320/M-SDE3FGHIRWY/LB1 |
Departure
| Time | 2026-05-05 12:38 |
|---|---|
| Airport | Adolfo Suárez Madrid–Barajas Airport (LEMD) |
Arrival
| Time | 2026-05-05 14:14 |
|---|---|
| Airport | Charles de Gaulle International Airport (LFPG) |
| Time | Latitude | Longitude | Altitude | Speed | Heading |
|---|---|---|---|---|---|
| 2026-05-05 12:12 | 40.49302 | -3.56666 | 1971 ft | 0 kts | 270° |
| 2026-05-05 12:18 | 40.49302 | -3.56665 | 1971 ft | 0 kts | 270° |
| 2026-05-05 12:29 | 40.49303 | -3.56636 | 1977 ft | 4 kts | 267° |
| 2026-05-05 12:29 | 40.49305 | -3.56601 | 1977 ft | 4 kts | 261° |
| 2026-05-05 12:29 | 40.49311 | -3.56567 | 1975 ft | 4 kts | 243° |
| 2026-05-05 12:29 | 40.49325 | -3.56545 | 1972 ft | 3 kts | 185° |
| 2026-05-05 12:30 | 40.49333 | -3.56544 | 1974 ft | 0 kts | 179° |
| 2026-05-05 12:32 | 40.49319 | -3.56544 | 1972 ft | 6 kts | 179° |
| 2026-05-05 12:32 | 40.49238 | -3.56543 | 1970 ft | 13 kts | 180° |
| 2026-05-05 12:33 | 40.49139 | -3.56542 | 1970 ft | 16 kts | 179° |
| 2026-05-05 12:33 | 40.49013 | -3.56540 | 1974 ft | 19 kts | 179° |
| 2026-05-05 12:33 | 40.48885 | -3.56545 | 1970 ft | 16 kts | 206° |
| 2026-05-05 12:33 | 40.48861 | -3.56674 | 1974 ft | 14 kts | 269° |
| 2026-05-05 12:34 | 40.48861 | -3.56812 | 1976 ft | 16 kts | 270° |
| 2026-05-05 12:34 | 40.48860 | -3.56958 | 1978 ft | 15 kts | 270° |
| 2026-05-05 12:34 | 40.48866 | -3.57082 | 1981 ft | 12 kts | 292° |
| 2026-05-05 12:34 | 40.48933 | -3.57113 | 1982 ft | 10 kts | 358° |
| 2026-05-05 12:35 | 40.49011 | -3.57114 | 1981 ft | 14 kts | 360° |
| 2026-05-05 12:35 | 40.49056 | -3.57176 | 1984 ft | 9 kts | 274° |
| 2026-05-05 12:35 | 40.49055 | -3.57254 | 1985 ft | 8 kts | 268° |
| 2026-05-05 12:35 | 40.49062 | -3.57301 | 1984 ft | 3 kts | 295° |
| 2026-05-05 12:36 | 40.49066 | -3.57309 | 1984 ft | 5 kts | 302° |
| 2026-05-05 12:36 | 40.49081 | -3.57330 | 1985 ft | 0 kts | 318° |
| 2026-05-05 12:36 | 40.49090 | -3.57342 | 1985 ft | 2 kts | 314° |
| 2026-05-05 12:37 | 40.49146 | -3.57418 | 1985 ft | 18 kts | 316° |
| 2026-05-05 12:37 | 40.49217 | -3.57456 | 1986 ft | 11 kts | 2° |
| 2026-05-05 12:37 | 40.49300 | -3.57453 | 1983 ft | 11 kts | 1° |
| 2026-05-05 12:37 | 40.49373 | -3.57452 | 1985 ft | 24 kts | 359° |
| 2026-05-05 12:38 | 40.49798 | -3.57458 | 1986 ft | 97 kts | 358° |
| 2026-05-05 12:38 | 40.50680 | -3.57463 | 1995 ft | 154 kts | 359° |
| 2026-05-05 12:38 | 40.51888 | -3.57467 | 2199 ft | 184 kts | 356° |
| 2026-05-05 12:38 | 40.53195 | -3.57424 | 2844 ft | 189 kts | 358° |
| 2026-05-05 12:39 | 40.54513 | -3.57433 | 3531 ft | 194 kts | 355° |
| 2026-05-05 12:39 | 40.55929 | -3.57173 | 3828 ft | 220 kts | 11° |
| 2026-05-05 12:39 | 40.57459 | -3.56609 | 4401 ft | 233 kts | 12° |
| 2026-05-05 12:39 | 40.59037 | -3.56018 | 5237 ft | 237 kts | 12° |
| 2026-05-05 12:40 | 40.60628 | -3.55416 | 6116 ft | 239 kts | 12° |
| 2026-05-05 12:40 | 40.62238 | -3.54806 | 6935 ft | 242 kts | 13° |
| 2026-05-05 12:40 | 40.63850 | -3.54271 | 7732 ft | 242 kts | 4° |
| 2026-05-05 12:40 | 40.65538 | -3.54094 | 8509 ft | 245 kts | 1° |
| 2026-05-05 12:41 | 40.67257 | -3.53943 | 9315 ft | 249 kts | 360° |
| 2026-05-05 12:41 | 40.68985 | -3.53628 | 10100 ft | 255 kts | 14° |
| 2026-05-05 12:41 | 40.70598 | -3.52579 | 10805 ft | 267 kts | 33° |
| 2026-05-05 12:41 | 40.71945 | -3.50735 | 11121 ft | 294 kts | 53° |
| 2026-05-05 12:42 | 40.73141 | -3.48417 | 11378 ft | 317 kts | 53° |
| 2026-05-05 12:42 | 40.74422 | -3.45919 | 11670 ft | 339 kts | 54° |
| 2026-05-05 12:42 | 40.75759 | -3.43312 | 12295 ft | 347 kts | 53° |
| 2026-05-05 12:42 | 40.77127 | -3.40653 | 13002 ft | 353 kts | 54° |
| 2026-05-05 12:43 | 40.78516 | -3.37961 | 13730 ft | 357 kts | 54° |
| 2026-05-05 12:43 | 40.79924 | -3.35238 | 14378 ft | 361 kts | 54° |
| 2026-05-05 12:43 | 40.81349 | -3.32487 | 15002 ft | 365 kts | 54° |
| 2026-05-05 12:43 | 40.82772 | -3.29741 | 15624 ft | 369 kts | 53° |
| 2026-05-05 12:44 | 40.84227 | -3.26925 | 16241 ft | 374 kts | 54° |
| 2026-05-05 12:44 | 40.85745 | -3.24061 | 16884 ft | 376 kts | 48° |
| 2026-05-05 12:44 | 40.87664 | -3.21812 | 17482 ft | 374 kts | 27° |
| 2026-05-05 12:44 | 40.90067 | -3.20579 | 18091 ft | 370 kts | 6° |
| 2026-05-05 12:45 | 40.92607 | -3.20529 | 18619 ft | 365 kts | 346° |
| 2026-05-05 12:45 | 40.95076 | -3.21328 | 19126 ft | 368 kts | 344° |
| 2026-05-05 12:45 | 40.97642 | -3.21709 | 19611 ft | 376 kts | 357° |
| 2026-05-05 12:45 | 41.00270 | -3.21339 | 20148 ft | 382 kts | 5° |
| 2026-05-05 12:46 | 41.02911 | -3.20803 | 20672 ft | 386 kts | 5° |
| 2026-05-05 12:46 | 41.05571 | -3.20213 | 21182 ft | 389 kts | 6° |
| 2026-05-05 12:46 | 41.08254 | -3.19595 | 21704 ft | 393 kts | 6° |
| 2026-05-05 12:46 | 41.10952 | -3.18971 | 22229 ft | 395 kts | 6° |
| 2026-05-05 12:47 | 41.13674 | -3.18344 | 22747 ft | 398 kts | 6° |
| 2026-05-05 12:47 | 41.16383 | -3.17721 | 23235 ft | 402 kts | 6° |
| 2026-05-05 12:47 | 41.19145 | -3.17090 | 23699 ft | 405 kts | 6° |
| 2026-05-05 12:47 | 41.21934 | -3.16459 | 24076 ft | 408 kts | 6° |
| 2026-05-05 12:48 | 41.24742 | -3.15826 | 24459 ft | 411 kts | 5° |
| 2026-05-05 12:48 | 41.27572 | -3.15191 | 24835 ft | 414 kts | 5° |
| 2026-05-05 12:48 | 41.30423 | -3.14549 | 25205 ft | 417 kts | 5° |
| 2026-05-05 12:48 | 41.33288 | -3.13901 | 25637 ft | 419 kts | 5° |
| 2026-05-05 12:49 | 41.36170 | -3.13244 | 26032 ft | 421 kts | 5° |
| 2026-05-05 12:49 | 41.39064 | -3.12582 | 26400 ft | 424 kts | 5° |
| 2026-05-05 12:49 | 41.41952 | -3.11923 | 26754 ft | 427 kts | 5° |
| 2026-05-05 12:49 | 41.44896 | -3.11255 | 27104 ft | 430 kts | 5° |
| 2026-05-05 12:50 | 41.47859 | -3.10585 | 27456 ft | 433 kts | 5° |
| 2026-05-05 12:50 | 41.50840 | -3.09911 | 27797 ft | 436 kts | 5° |
| 2026-05-05 12:50 | 41.53838 | -3.09234 | 28184 ft | 439 kts | 5° |
| 2026-05-05 12:50 | 41.56852 | -3.08553 | 28533 ft | 441 kts | 5° |
| 2026-05-05 12:51 | 41.59891 | -3.07862 | 28862 ft | 444 kts | 5° |
| 2026-05-05 12:51 | 41.62951 | -3.07166 | 29185 ft | 447 kts | 5° |
| 2026-05-05 12:51 | 41.66027 | -3.06467 | 29513 ft | 450 kts | 5° |
| 2026-05-05 12:51 | 41.69125 | -3.05762 | 29826 ft | 453 kts | 5° |
| 2026-05-05 12:52 | 41.72241 | -3.05054 | 30086 ft | 457 kts | 5° |
| 2026-05-05 12:52 | 41.75396 | -3.04337 | 30276 ft | 461 kts | 5° |
| 2026-05-05 12:52 | 41.78527 | -3.03621 | 30520 ft | 464 kts | 5° |
| 2026-05-05 12:52 | 41.81717 | -3.02886 | 30777 ft | 466 kts | 5° |
| 2026-05-05 12:53 | 41.84917 | -3.02147 | 31029 ft | 468 kts | 5° |
| 2026-05-05 12:53 | 41.88130 | -3.01403 | 31284 ft | 470 kts | 5° |
| 2026-05-05 12:53 | 41.91352 | -3.00657 | 31600 ft | 470 kts | 5° |
| 2026-05-05 12:53 | 41.94575 | -2.99910 | 31962 ft | 469 kts | 5° |
| 2026-05-05 12:54 | 42.00989 | -2.98426 | 32712 ft | 467 kts | 5° |
| 2026-05-05 12:54 | 42.04197 | -2.97681 | 33067 ft | 467 kts | 5° |
| 2026-05-05 12:54 | 42.07394 | -2.96935 | 33407 ft | 467 kts | 5° |
| 2026-05-05 12:55 | 42.10599 | -2.96188 | 33770 ft | 466 kts | 5° |
| 2026-05-05 12:55 | 42.13789 | -2.95447 | 34111 ft | 465 kts | 5° |
| 2026-05-05 12:55 | 42.16941 | -2.94716 | 34411 ft | 465 kts | 5° |
| 2026-05-05 12:55 | 42.20126 | -2.93977 | 34674 ft | 465 kts | 5° |
| 2026-05-05 12:56 | 42.23319 | -2.93234 | 34943 ft | 465 kts | 6° |
| 2026-05-05 12:56 | 42.26508 | -2.92485 | 35166 ft | 466 kts | 6° |
| 2026-05-05 12:56 | 42.29701 | -2.91735 | 35399 ft | 466 kts | 6° |
| 2026-05-05 12:56 | 42.32894 | -2.90983 | 35646 ft | 465 kts | 6° |
| 2026-05-05 12:57 | 42.36080 | -2.90234 | 35881 ft | 465 kts | 6° |
| 2026-05-05 12:57 | 42.39271 | -2.89487 | 36134 ft | 465 kts | 6° |
| 2026-05-05 12:57 | 42.42449 | -2.88727 | 36383 ft | 465 kts | 8° |
| 2026-05-05 12:57 | 42.45575 | -2.87520 | 36601 ft | 469 kts | 18° |
| 2026-05-05 12:58 | 42.48505 | -2.85694 | 36814 ft | 472 kts | 26° |
| 2026-05-05 12:58 | 42.51366 | -2.83524 | 37023 ft | 472 kts | 26° |
| 2026-05-05 12:58 | 42.54235 | -2.81354 | 37236 ft | 472 kts | 26° |
| 2026-05-05 12:58 | 42.57100 | -2.79191 | 37449 ft | 471 kts | 26° |
| 2026-05-05 12:59 | 42.59964 | -2.77029 | 37683 ft | 471 kts | 27° |
| 2026-05-05 12:59 | 42.62822 | -2.74865 | 37909 ft | 470 kts | 27° |
| 2026-05-05 12:59 | 42.65682 | -2.72699 | 38008 ft | 470 kts | 27° |
| 2026-05-05 13:00 | 42.74226 | -2.66212 | 37999 ft | 469 kts | 27° |
| 2026-05-05 13:01 | 42.85622 | -2.57526 | 37999 ft | 471 kts | 27° |
| 2026-05-05 13:01 | 42.91347 | -2.53148 | 38148 ft | 471 kts | 27° |
| 2026-05-05 13:02 | 42.94207 | -2.50959 | 38356 ft | 471 kts | 27° |
| 2026-05-05 13:02 | 42.97064 | -2.48770 | 38542 ft | 471 kts | 27° |
| 2026-05-05 13:02 | 42.99916 | -2.46582 | 38733 ft | 470 kts | 27° |
| 2026-05-05 13:02 | 43.02757 | -2.44398 | 38911 ft | 468 kts | 27° |
| 2026-05-05 13:03 | 43.08436 | -2.40018 | 39026 ft | 468 kts | 27° |
| 2026-05-05 13:03 | 43.14061 | -2.35682 | 39021 ft | 467 kts | 27° |
| 2026-05-05 13:04 | 43.19727 | -2.31307 | 39031 ft | 467 kts | 27° |
| 2026-05-05 13:04 | 43.25390 | -2.26929 | 39035 ft | 468 kts | 27° |
| 2026-05-05 13:05 | 43.31061 | -2.22521 | 39034 ft | 469 kts | 28° |
| 2026-05-05 13:05 | 43.36698 | -2.18126 | 39034 ft | 469 kts | 28° |
| 2026-05-05 13:06 | 43.42378 | -2.13701 | 39055 ft | 469 kts | 28° |
| 2026-05-05 13:06 | 43.48053 | -2.09270 | 39055 ft | 469 kts | 28° |
| 2026-05-05 13:07 | 43.53724 | -2.04825 | 39042 ft | 469 kts | 28° |
| 2026-05-05 13:07 | 43.59390 | -2.00380 | 39039 ft | 469 kts | 28° |
| 2026-05-05 13:08 | 43.65064 | -1.95923 | 39046 ft | 469 kts | 28° |
| 2026-05-05 13:08 | 43.70690 | -1.91484 | 39037 ft | 469 kts | 28° |
| 2026-05-05 13:09 | 43.76356 | -1.87001 | 39024 ft | 469 kts | 28° |
| 2026-05-05 13:09 | 43.82029 | -1.82510 | 39033 ft | 470 kts | 28° |
| 2026-05-05 13:10 | 43.87697 | -1.78017 | 39024 ft | 469 kts | 28° |
| 2026-05-05 13:10 | 43.93365 | -1.73510 | 39019 ft | 469 kts | 28° |
| 2026-05-05 13:11 | 43.99018 | -1.68987 | 39011 ft | 469 kts | 29° |
| 2026-05-05 13:11 | 44.04639 | -1.64487 | 39020 ft | 469 kts | 29° |
| 2026-05-05 13:12 | 44.10293 | -1.59970 | 39013 ft | 468 kts | 29° |
| 2026-05-05 13:12 | 44.15939 | -1.55451 | 39006 ft | 468 kts | 29° |
| 2026-05-05 13:13 | 44.21571 | -1.50920 | 38979 ft | 467 kts | 29° |
| 2026-05-05 13:13 | 44.27197 | -1.46386 | 38975 ft | 467 kts | 29° |
| 2026-05-05 13:14 | 44.32829 | -1.41836 | 38971 ft | 467 kts | 29° |
| 2026-05-05 13:14 | 44.38450 | -1.37269 | 38972 ft | 467 kts | 29° |
| 2026-05-05 13:15 | 44.44029 | -1.32738 | 38981 ft | 467 kts | 29° |
| 2026-05-05 13:15 | 44.49658 | -1.28172 | 38980 ft | 467 kts | 29° |
| 2026-05-05 13:16 | 44.55291 | -1.23581 | 38983 ft | 468 kts | 29° |
| 2026-05-05 13:16 | 44.60919 | -1.18979 | 38989 ft | 468 kts | 29° |
| 2026-05-05 13:17 | 44.66550 | -1.14365 | 38989 ft | 468 kts | 29° |
| 2026-05-05 13:17 | 44.72142 | -1.09780 | 38984 ft | 469 kts | 30° |
| 2026-05-05 13:18 | 44.77776 | -1.05147 | 38980 ft | 469 kts | 30° |
| 2026-05-05 13:18 | 44.83413 | -1.00496 | 38979 ft | 470 kts | 30° |
| 2026-05-05 13:19 | 44.89056 | -0.95829 | 38978 ft | 470 kts | 30° |
| 2026-05-05 13:19 | 44.94700 | -0.91155 | 38991 ft | 470 kts | 30° |
| 2026-05-05 13:20 | 45.00344 | -0.86476 | 38980 ft | 470 kts | 30° |
| 2026-05-05 13:20 | 45.05977 | -0.81794 | 38980 ft | 469 kts | 30° |
| 2026-05-05 13:21 | 45.11561 | -0.77132 | 38979 ft | 469 kts | 30° |
| 2026-05-05 13:21 | 45.17169 | -0.72430 | 38961 ft | 468 kts | 30° |
| 2026-05-05 13:22 | 45.22778 | -0.67722 | 38975 ft | 468 kts | 30° |
| 2026-05-05 13:22 | 45.28376 | -0.63017 | 38969 ft | 467 kts | 30° |
| 2026-05-05 13:23 | 45.33973 | -0.58316 | 38965 ft | 467 kts | 30° |
| 2026-05-05 13:23 | 45.39558 | -0.53607 | 38963 ft | 467 kts | 30° |
| 2026-05-05 13:24 | 45.45139 | -0.48883 | 38967 ft | 466 kts | 30° |
| 2026-05-05 13:24 | 45.50708 | -0.44162 | 38966 ft | 466 kts | 30° |
| 2026-05-05 13:25 | 45.56237 | -0.39467 | 38967 ft | 465 kts | 30° |
| 2026-05-05 13:25 | 45.60365 | -0.35956 | 38973 ft | 465 kts | 30° |
| 2026-05-05 13:26 | 45.65932 | -0.31255 | 38965 ft | 464 kts | 27° |
| 2026-05-05 13:26 | 45.71790 | -0.27372 | 38931 ft | 464 kts | 24° |
| 2026-05-05 13:27 | 45.77665 | -0.23544 | 38929 ft | 464 kts | 24° |
| 2026-05-05 13:27 | 45.83547 | -0.19702 | 38922 ft | 465 kts | 24° |
| 2026-05-05 13:28 | 45.89429 | -0.15847 | 38915 ft | 465 kts | 24° |
| 2026-05-05 13:28 | 45.95280 | -0.12008 | 38910 ft | 465 kts | 24° |
| 2026-05-05 13:29 | 46.01176 | -0.08141 | 38912 ft | 466 kts | 24° |
| 2026-05-05 13:29 | 46.07074 | -0.04247 | 38911 ft | 467 kts | 24° |
| 2026-05-05 13:30 | 46.12973 | -0.00333 | 38905 ft | 467 kts | 24° |
| 2026-05-05 13:30 | 46.18868 | 0.03576 | 38902 ft | 467 kts | 24° |
| 2026-05-05 13:31 | 46.24776 | 0.07497 | 38904 ft | 467 kts | 24° |
| 2026-05-05 13:31 | 46.30678 | 0.11428 | 38906 ft | 467 kts | 24° |
| 2026-05-05 13:32 | 46.36533 | 0.15327 | 38902 ft | 467 kts | 24° |
| 2026-05-05 13:32 | 46.42427 | 0.19271 | 38912 ft | 466 kts | 25° |
| 2026-05-05 13:33 | 46.48314 | 0.23229 | 38913 ft | 466 kts | 25° |
| 2026-05-05 13:33 | 46.54205 | 0.27188 | 38914 ft | 466 kts | 25° |
| 2026-05-05 13:34 | 46.60260 | 0.30489 | 38916 ft | 465 kts | 11° |
| 2026-05-05 13:34 | 46.66557 | 0.32404 | 38914 ft | 465 kts | 11° |
| 2026-05-05 13:35 | 46.72894 | 0.34343 | 38910 ft | 465 kts | 11° |
| 2026-05-05 13:35 | 46.79230 | 0.36289 | 38902 ft | 465 kts | 11° |
| 2026-05-05 13:36 | 46.85565 | 0.38242 | 38893 ft | 465 kts | 11° |
| 2026-05-05 13:36 | 46.91864 | 0.40184 | 38886 ft | 466 kts | 11° |
| 2026-05-05 13:37 | 46.98204 | 0.42156 | 38801 ft | 467 kts | 11° |
| 2026-05-05 13:37 | 47.01388 | 0.43149 | 37810 ft | 469 kts | 11° |
| 2026-05-05 13:37 | 47.04591 | 0.44142 | 36682 ft | 469 kts | 11° |
| 2026-05-05 13:38 | 47.07792 | 0.44698 | 36040 ft | 458 kts | 1° |
| 2026-05-05 13:38 | 47.10929 | 0.44527 | 35551 ft | 444 kts | 353° |
| 2026-05-05 13:38 | 47.13944 | 0.43839 | 34971 ft | 434 kts | 351° |
| 2026-05-05 13:38 | 47.16904 | 0.43121 | 34320 ft | 428 kts | 352° |
| 2026-05-05 13:39 | 47.19813 | 0.42412 | 33637 ft | 421 kts | 352° |
| 2026-05-05 13:39 | 47.22684 | 0.41705 | 33240 ft | 413 kts | 352° |
| 2026-05-05 13:39 | 47.25484 | 0.41016 | 33060 ft | 403 kts | 352° |
| 2026-05-05 13:39 | 47.28244 | 0.40340 | 32581 ft | 400 kts | 353° |
| 2026-05-05 13:40 | 47.30982 | 0.39672 | 32116 ft | 398 kts | 353° |
| 2026-05-05 13:40 | 47.33699 | 0.39010 | 31656 ft | 395 kts | 354° |
| 2026-05-05 13:40 | 47.36398 | 0.38354 | 31203 ft | 392 kts | 354° |
| 2026-05-05 13:40 | 47.39078 | 0.37700 | 30748 ft | 388 kts | 354° |
| 2026-05-05 13:41 | 47.41701 | 0.37060 | 30333 ft | 385 kts | 355° |
| 2026-05-05 13:41 | 47.44329 | 0.36418 | 29897 ft | 382 kts | 355° |
| 2026-05-05 13:41 | 47.46941 | 0.35779 | 29437 ft | 378 kts | 355° |
| 2026-05-05 13:41 | 47.49511 | 0.35141 | 29028 ft | 373 kts | 355° |
| 2026-05-05 13:42 | 47.52055 | 0.34504 | 28622 ft | 368 kts | 355° |
| 2026-05-05 13:42 | 47.54562 | 0.33879 | 28229 ft | 363 kts | 355° |
| 2026-05-05 13:42 | 47.57044 | 0.33263 | 27841 ft | 359 kts | 355° |
| 2026-05-05 13:42 | 47.59460 | 0.32661 | 27445 ft | 355 kts | 354° |
| 2026-05-05 13:43 | 47.61883 | 0.32058 | 27051 ft | 351 kts | 354° |
| 2026-05-05 13:43 | 47.64279 | 0.31465 | 26673 ft | 348 kts | 354° |
| 2026-05-05 13:43 | 47.66657 | 0.30877 | 26273 ft | 345 kts | 354° |
| 2026-05-05 13:43 | 47.69017 | 0.30293 | 25881 ft | 342 kts | 353° |
| 2026-05-05 13:44 | 47.71358 | 0.29713 | 25473 ft | 340 kts | 353° |
| 2026-05-05 13:44 | 47.73683 | 0.29136 | 25065 ft | 338 kts | 353° |
| 2026-05-05 13:44 | 47.76003 | 0.28557 | 24655 ft | 336 kts | 353° |
| 2026-05-05 13:44 | 47.78311 | 0.28301 | 24235 ft | 332 kts | 5° |
| 2026-05-05 13:45 | 47.80582 | 0.28753 | 23812 ft | 327 kts | 16° |
| 2026-05-05 13:45 | 47.82725 | 0.29888 | 23580 ft | 334 kts | 27° |
| 2026-05-05 13:45 | 47.84739 | 0.31696 | 23296 ft | 341 kts | 36° |
| 2026-05-05 13:45 | 47.86664 | 0.33715 | 23025 ft | 343 kts | 36° |
| 2026-05-05 13:46 | 47.88616 | 0.35759 | 22772 ft | 343 kts | 36° |
| 2026-05-05 13:46 | 47.90566 | 0.37795 | 22487 ft | 342 kts | 36° |
| 2026-05-05 13:46 | 47.92516 | 0.39830 | 22214 ft | 341 kts | 36° |
| 2026-05-05 13:46 | 47.94453 | 0.41858 | 21947 ft | 340 kts | 36° |
| 2026-05-05 13:47 | 47.96390 | 0.43888 | 21680 ft | 342 kts | 36° |
| 2026-05-05 13:47 | 47.98340 | 0.45934 | 21415 ft | 342 kts | 36° |
| 2026-05-05 13:47 | 48.00257 | 0.47947 | 21151 ft | 341 kts | 36° |
| 2026-05-05 13:47 | 48.02198 | 0.49989 | 20880 ft | 339 kts | 37° |
| 2026-05-05 13:48 | 48.04113 | 0.52001 | 20618 ft | 336 kts | 36° |
| 2026-05-05 13:48 | 48.06020 | 0.54009 | 20355 ft | 334 kts | 37° |
| 2026-05-05 13:48 | 48.07912 | 0.56008 | 20113 ft | 332 kts | 36° |
| 2026-05-05 13:48 | 48.09803 | 0.58004 | 19848 ft | 332 kts | 36° |
| 2026-05-05 13:49 | 48.11687 | 0.59991 | 19585 ft | 330 kts | 37° |
| 2026-05-05 13:49 | 48.13559 | 0.61969 | 19324 ft | 329 kts | 36° |
| 2026-05-05 13:49 | 48.15427 | 0.63947 | 19084 ft | 328 kts | 37° |
| 2026-05-05 13:49 | 48.17285 | 0.65920 | 18821 ft | 327 kts | 36° |
| 2026-05-05 13:50 | 48.19137 | 0.67890 | 18551 ft | 327 kts | 37° |
| 2026-05-05 13:50 | 48.20961 | 0.69829 | 18295 ft | 325 kts | 37° |
| 2026-05-05 13:50 | 48.22798 | 0.71779 | 18045 ft | 323 kts | 37° |
| 2026-05-05 13:50 | 48.24627 | 0.73721 | 17763 ft | 321 kts | 36° |
| 2026-05-05 13:51 | 48.26449 | 0.75656 | 17524 ft | 320 kts | 36° |
| 2026-05-05 13:51 | 48.27647 | 0.76932 | 17372 ft | 320 kts | 36° |
| 2026-05-05 13:51 | 48.29458 | 0.78863 | 17124 ft | 318 kts | 38° |
| 2026-05-05 13:51 | 48.31866 | 0.81425 | 16792 ft | 316 kts | 37° |
| 2026-05-05 13:52 | 48.33056 | 0.82702 | 16637 ft | 316 kts | 38° |
| 2026-05-05 13:52 | 48.34625 | 0.84944 | 16314 ft | 310 kts | 52° |
| 2026-05-05 13:52 | 48.36125 | 0.88609 | 15768 ft | 308 kts | 64° |
| 2026-05-05 13:52 | 48.36776 | 0.90508 | 15513 ft | 307 kts | 63° |
| 2026-05-05 13:53 | 48.38075 | 0.94268 | 15066 ft | 304 kts | 64° |
| 2026-05-05 13:53 | 48.38735 | 0.96170 | 14817 ft | 304 kts | 63° |
| 2026-05-05 13:53 | 48.39712 | 0.98978 | 14476 ft | 302 kts | 63° |
| 2026-05-05 13:53 | 48.40679 | 1.01764 | 14154 ft | 300 kts | 63° |
| 2026-05-05 13:54 | 48.41645 | 1.04548 | 13782 ft | 299 kts | 63° |
| 2026-05-05 13:54 | 48.42589 | 1.07276 | 13474 ft | 297 kts | 63° |
| 2026-05-05 13:54 | 48.43538 | 1.10021 | 13113 ft | 295 kts | 63° |
| 2026-05-05 13:54 | 48.44479 | 1.12752 | 12774 ft | 292 kts | 63° |
| 2026-05-05 13:55 | 48.45407 | 1.15455 | 12522 ft | 289 kts | 63° |
| 2026-05-05 13:55 | 48.46325 | 1.18139 | 12204 ft | 287 kts | 63° |
| 2026-05-05 13:55 | 48.47240 | 1.20814 | 11844 ft | 286 kts | 63° |
| 2026-05-05 13:55 | 48.48148 | 1.23468 | 11543 ft | 283 kts | 63° |
| 2026-05-05 13:56 | 48.49050 | 1.26108 | 11122 ft | 283 kts | 63° |
| 2026-05-05 13:56 | 48.49950 | 1.28742 | 10859 ft | 282 kts | 63° |
| 2026-05-05 13:56 | 48.50839 | 1.31338 | 10842 ft | 282 kts | 63° |
| 2026-05-05 13:56 | 48.51739 | 1.33972 | 10845 ft | 284 kts | 63° |
| 2026-05-05 13:57 | 48.52645 | 1.36614 | 10847 ft | 283 kts | 63° |
| 2026-05-05 13:57 | 48.53547 | 1.39248 | 10839 ft | 282 kts | 63° |
| 2026-05-05 13:57 | 48.54453 | 1.41890 | 10840 ft | 283 kts | 63° |
| 2026-05-05 13:57 | 48.55355 | 1.44525 | 10841 ft | 283 kts | 63° |
| 2026-05-05 13:58 | 48.56259 | 1.47158 | 10842 ft | 283 kts | 63° |
| 2026-05-05 13:58 | 48.57184 | 1.49780 | 10843 ft | 284 kts | 58° |
| 2026-05-05 13:58 | 48.58401 | 1.52068 | 10843 ft | 284 kts | 46° |
| 2026-05-05 13:58 | 48.59811 | 1.54212 | 10842 ft | 284 kts | 46° |
| 2026-05-05 13:59 | 48.62568 | 1.58445 | 10204 ft | 283 kts | 47° |
| 2026-05-05 13:59 | 48.63948 | 1.60573 | 9753 ft | 282 kts | 47° |
| 2026-05-05 14:00 | 48.66665 | 1.64758 | 9281 ft | 276 kts | 47° |
| 2026-05-05 14:00 | 48.68015 | 1.66840 | 9062 ft | 277 kts | 47° |
| 2026-05-05 14:00 | 48.69360 | 1.68910 | 8831 ft | 275 kts | 47° |
| 2026-05-05 14:00 | 48.70691 | 1.70958 | 8513 ft | 272 kts | 47° |
| 2026-05-05 14:01 | 48.72004 | 1.72988 | 8218 ft | 265 kts | 47° |
| 2026-05-05 14:01 | 48.73259 | 1.74932 | 7844 ft | 260 kts | 46° |
| 2026-05-05 14:01 | 48.74510 | 1.76875 | 7543 ft | 256 kts | 46° |
| 2026-05-05 14:01 | 48.75751 | 1.78806 | 7132 ft | 256 kts | 46° |
| 2026-05-05 14:02 | 48.76993 | 1.80734 | 6766 ft | 254 kts | 46° |
| 2026-05-05 14:02 | 48.78220 | 1.82633 | 6385 ft | 252 kts | 46° |
| 2026-05-05 14:02 | 48.79441 | 1.84526 | 5958 ft | 252 kts | 46° |
| 2026-05-05 14:02 | 48.80661 | 1.86421 | 5560 ft | 250 kts | 46° |
| 2026-05-05 14:03 | 48.81864 | 1.88293 | 5186 ft | 247 kts | 45° |
| 2026-05-05 14:03 | 48.83050 | 1.90143 | 4955 ft | 243 kts | 45° |
| 2026-05-05 14:03 | 48.84248 | 1.92008 | 4819 ft | 252 kts | 45° |
| 2026-05-05 14:03 | 48.85479 | 1.93923 | 4689 ft | 254 kts | 45° |
| 2026-05-05 14:04 | 48.86716 | 1.95851 | 4562 ft | 255 kts | 45° |
| 2026-05-05 14:04 | 48.87949 | 1.97780 | 4423 ft | 253 kts | 45° |
| 2026-05-05 14:04 | 48.89173 | 1.99701 | 4305 ft | 253 kts | 45° |
| 2026-05-05 14:04 | 48.90378 | 2.01586 | 4170 ft | 242 kts | 45° |
| 2026-05-05 14:05 | 48.91490 | 2.03328 | 4040 ft | 226 kts | 45° |
| 2026-05-05 14:05 | 48.92547 | 2.04981 | 3924 ft | 210 kts | 45° |
| 2026-05-05 14:05 | 48.93507 | 2.06486 | 3989 ft | 190 kts | 45° |
| 2026-05-05 14:05 | 48.94420 | 2.07916 | 4023 ft | 187 kts | 45° |
| 2026-05-05 14:06 | 48.95272 | 2.09254 | 4037 ft | 164 kts | 45° |
| 2026-05-05 14:06 | 48.96020 | 2.10435 | 4021 ft | 150 kts | 45° |
| 2026-05-05 14:06 | 48.96738 | 2.11565 | 4024 ft | 148 kts | 45° |
| 2026-05-05 14:06 | 48.97452 | 2.12685 | 4038 ft | 146 kts | 44° |
| 2026-05-05 14:07 | 48.98144 | 2.13772 | 4030 ft | 141 kts | 45° |
| 2026-05-05 14:07 | 48.98807 | 2.14815 | 3879 ft | 134 kts | 43° |
| 2026-05-05 14:07 | 48.99450 | 2.15828 | 3530 ft | 135 kts | 45° |
| 2026-05-05 14:07 | 49.00069 | 2.16894 | 3320 ft | 135 kts | 50° |
| 2026-05-05 14:08 | 49.00416 | 2.18247 | 3173 ft | 139 kts | 76° |
| 2026-05-05 14:08 | 49.00566 | 2.19678 | 3038 ft | 136 kts | 76° |
| 2026-05-05 14:08 | 49.00687 | 2.21089 | 2912 ft | 134 kts | 79° |
| 2026-05-05 14:08 | 49.00787 | 2.22496 | 2747 ft | 133 kts | 76° |
| 2026-05-05 14:09 | 49.00874 | 2.23884 | 2786 ft | 130 kts | 79° |
| 2026-05-05 14:09 | 49.00960 | 2.25288 | 2955 ft | 135 kts | 79° |
| 2026-05-05 14:09 | 49.01044 | 2.26725 | 2997 ft | 137 kts | 80° |
| 2026-05-05 14:09 | 49.01127 | 2.28165 | 3005 ft | 135 kts | 80° |
| 2026-05-05 14:10 | 49.01207 | 2.29580 | 3004 ft | 133 kts | 79° |
| 2026-05-05 14:10 | 49.01287 | 2.30994 | 3002 ft | 135 kts | 78° |
| 2026-05-05 14:10 | 49.01369 | 2.32439 | 2949 ft | 140 kts | 79° |
| 2026-05-05 14:10 | 49.01449 | 2.33890 | 2820 ft | 136 kts | 80° |
| 2026-05-05 14:11 | 49.01528 | 2.35310 | 2654 ft | 134 kts | 82° |
| 2026-05-05 14:11 | 49.01606 | 2.36718 | 2478 ft | 133 kts | 82° |
| 2026-05-05 14:11 | 49.01684 | 2.38122 | 2313 ft | 133 kts | 81° |
| 2026-05-05 14:11 | 49.01761 | 2.39523 | 2132 ft | 133 kts | 80° |
| 2026-05-05 14:12 | 49.01839 | 2.40921 | 1950 ft | 133 kts | 79° |
| 2026-05-05 14:12 | 49.01916 | 2.42322 | 1775 ft | 132 kts | 79° |
| 2026-05-05 14:12 | 49.01992 | 2.43699 | 1605 ft | 132 kts | 78° |
| 2026-05-05 14:12 | 49.02069 | 2.45096 | 1418 ft | 133 kts | 78° |
| 2026-05-05 14:13 | 49.02146 | 2.46500 | 1233 ft | 136 kts | 79° |
| 2026-05-05 14:13 | 49.02225 | 2.47941 | 1030 ft | 136 kts | 82° |
| 2026-05-05 14:13 | 49.02302 | 2.49372 | 853 ft | 136 kts | 83° |
| 2026-05-05 14:13 | 49.02380 | 2.50807 | 646 ft | 136 kts | 78° |
| 2026-05-05 14:14 | 49.02448 | 2.52242 | 412 ft | 135 kts | 81° |
| 2026-05-05 14:14 | 49.02521 | 2.53610 | 358 ft | 114 kts | 76° |
| 2026-05-05 14:14 | 49.02578 | 2.54388 | 359 ft | 44 kts | 89° |
| 2026-05-05 14:14 | 49.02537 | 2.54576 | 356 ft | 3 kts | 89° |
| 2026-05-05 14:15 | 49.02536 | 2.54611 | 359 ft | 3 kts | 95° |
| 2026-05-05 14:15 | 49.02528 | 2.54665 | 354 ft | 8 kts | 103° |
| 2026-05-05 14:15 | 49.02513 | 2.54757 | 356 ft | 10 kts | 105° |
| 2026-05-05 14:15 | 49.02493 | 2.54867 | 361 ft | 8 kts | 106° |
| 2026-05-05 14:16 | 49.02491 | 2.54877 | 360 ft | 0 kts | 106° |
| 2026-05-05 14:16 | 49.02487 | 2.54902 | 356 ft | 10 kts | 104° |
| 2026-05-05 14:16 | 49.02471 | 2.54991 | 358 ft | 6 kts | 106° |
| 2026-05-05 14:16 | 49.02452 | 2.55089 | 357 ft | 12 kts | 106° |
| 2026-05-05 14:17 | 49.02446 | 2.55181 | 355 ft | 8 kts | 86° |
| 2026-05-05 14:17 | 49.02455 | 2.55324 | 359 ft | 15 kts | 86° |
| 2026-05-05 14:17 | 49.02462 | 2.55472 | 355 ft | 13 kts | 85° |
| 2026-05-05 14:17 | 49.02468 | 2.55593 | 361 ft | 10 kts | 85° |
| 2026-05-05 14:18 | 49.02474 | 2.55718 | 355 ft | 17 kts | 85° |
| 2026-05-05 14:18 | 49.02480 | 2.55885 | 355 ft | 12 kts | 101° |
| 2026-05-05 14:18 | 49.02467 | 2.55921 | 364 ft | 0 kts | 139° |
| 2026-05-05 14:20 | 49.02464 | 2.55925 | 359 ft | 4 kts | 140° |
| 2026-05-05 14:21 | 49.02433 | 2.55950 | 357 ft | 8 kts | 163° |
| 2026-05-05 14:21 | 49.02378 | 2.55960 | 357 ft | 6 kts | 174° |
| 2026-05-05 14:21 | 49.02275 | 2.55972 | 358 ft | 32 kts | 176° |
| 2026-05-05 14:21 | 49.02149 | 2.55985 | 355 ft | 9 kts | 175° |
| 2026-05-05 14:22 | 49.02135 | 2.55988 | 361 ft | 0 kts | 173° |
| 2026-05-05 14:22 | 49.02092 | 2.56032 | 359 ft | 15 kts | 139° |
| 2026-05-05 14:22 | 49.02028 | 2.56078 | 355 ft | 7 kts | 172° |
| 2026-05-05 14:22 | 49.01997 | 2.56082 | 355 ft | 2 kts | 174° |
| 2026-05-05 14:23 | 49.01971 | 2.56085 | 357 ft | 7 kts | 178° |
| 2026-05-05 14:23 | 49.01927 | 2.56065 | 354 ft | 13 kts | 218° |
| 2026-05-05 14:23 | 49.01907 | 2.55943 | 354 ft | 10 kts | 265° |
| 2026-05-05 14:23 | 49.01901 | 2.55836 | 358 ft | 15 kts | 265° |
| 2026-05-05 14:24 | 49.01894 | 2.55696 | 358 ft | 11 kts | 265° |
| 2026-05-05 14:24 | 49.01889 | 2.55602 | 354 ft | 11 kts | 265° |
| 2026-05-05 14:24 | 49.01881 | 2.55459 | 354 ft | 12 kts | 264° |
| 2026-05-05 14:24 | 49.01875 | 2.55359 | 356 ft | 7 kts | 265° |
| 2026-05-05 14:25 | 49.01866 | 2.55205 | 359 ft | 19 kts | 265° |
| 2026-05-05 14:25 | 49.01859 | 2.55038 | 361 ft | 13 kts | 266° |
| 2026-05-05 14:25 | 49.01853 | 2.54931 | 354 ft | 9 kts | 264° |
| 2026-05-05 14:25 | 49.01844 | 2.54770 | 357 ft | 18 kts | 265° |
| 2026-05-05 14:26 | 49.01835 | 2.54611 | 355 ft | 12 kts | 265° |
| 2026-05-05 14:26 | 49.01829 | 2.54509 | 358 ft | 7 kts | 265° |
| 2026-05-05 14:26 | 49.01825 | 2.54417 | 355 ft | 14 kts | 265° |
| 2026-05-05 14:26 | 49.01819 | 2.54300 | 354 ft | 8 kts | 265° |
| 2026-05-05 14:27 | 49.01817 | 2.54238 | 354 ft | 4 kts | 268° |
| 2026-05-05 14:27 | 49.01814 | 2.54184 | 354 ft | 6 kts | 265° |
| 2026-05-05 14:27 | 49.01806 | 2.54074 | 354 ft | 4 kts | 261° |
| 2026-05-05 14:27 | 49.01803 | 2.54058 | 358 ft | 0 kts | 240° |
| 2026-05-05 14:28 | 49.01783 | 2.54035 | 359 ft | 12 kts | 219° |
| 2026-05-05 14:28 | 49.01757 | 2.53998 | 361 ft | 2 kts | 221° |
| 2026-05-05 14:28 | 49.01729 | 2.53968 | 358 ft | 5 kts | 212° |
| 2026-05-05 14:28 | 49.01713 | 2.53950 | 357 ft | 1 kts | 220° |
| 2026-05-05 14:29 | 49.01701 | 2.53931 | 361 ft | 4 kts | 225° |
| 2026-05-05 14:29 | 49.01674 | 2.53915 | 359 ft | 4 kts | 192° |
| 2026-05-05 14:29 | 49.01652 | 2.53907 | 359 ft | 1 kts | 194° |
| 2026-05-05 14:29 | 49.01650 | 2.53907 | 359 ft | 0 kts | 194° |